Terminal Aerodrome Forecast
Issued by NWS

Home | Current Version | Previous Version | Text Only | Print | Product List | Glossary On
Versions: 1 2 3 4 5 6 7 8 9 10 11 12 13 14 15 16 17
000
FTUS43 KGRR 120500
TAFBTL
TAF
KBTL 120540Z 1206/1306 18003KT P6SM BKN120
     FM121500 20007KT P6SM BKN040
     FM121800 23007KT 6SM BR VCSH OVC035
     FM130200 21007KT 5SM -TSRA BR OVC025CB=

USA.gov is the U.S. government's official web portal to all federal, state and local government web resources and services.